首页
METAR-TAF:

METAR-TAF

机场 :

佩尔, 比利时

纬度: 51-10N, 经度: 005-28E, 海拔: 55米

当前天气观测

该预报发布于45分钟前的05:55 UTC
风速2节,风向多变
温度 23°C
湿度 69%
气压 1016 hPa
能见度10公里或以上
多云层高于19000英尺
多云层高于25000英尺

METAR: EBBL 250555Z VRB02KT 9999 BKN190 BKN250 23/17 Q1016 BLU BLU

时间: 08:40 (06:40 UTC)

预报

该预报发布于59分钟前的05:41 UTC
预报有效从25日的 07点(UTC)到 25日的 16点(UTC)
风速5节,风向
能见度10公里或以上
多云层高于19000英尺
多云层高于30000英尺
成为
从 25日的 09点(UTC)到 25日的 11点(UTC)
风速7节,风向

TAF: EBBL 250541Z 2507/2516 10005KT 9999 BKN190 BKN300 BECMG 2509/2511 18007KT

超过4000个机场的气象观测和天气预报(METAR&TAF报告)。

可查询的气象台以黄色和红色小点在地图上表示。

将鼠标移到小点上方,可查看气象台名称。

然后点击查看天气观测和预报。

如需切换地图:点击带黑十字的绿色按钮放大地图;点击带横线的绿色按钮缩小地图;或者点击绿色箭头查看邻近地区的地图。


METAR-TAF: